Hovedside
METAR-TAF:

METAR-TAF

Lufthavner :

Kinloss, Skottland

breddegrad: 57-39N, lengdegrad: 003-34W, høyde over havet: 7 m

Gjeldene værobservasjon

Denne rapporten ble laget for 35 minutter siden, klokken 14:50 UTC
Vind 9 kt fra Sør-sørvest
Temperatur 9°C
Luftfuktighet 81%
Trykk 989 hPa
Sikt 10 km eller mer
lett regn

METAR: EGQK 051450Z AUTO 21009KT 9999 -RA FEW042/// BKN080/// 09/06 Q0989

Tid: 15:25 (15:25 UTC)


TAF: fraværende

Værobservasjoner og værvarsel for over 4000 flyplasser (METAR- og TAF-rapporter).

Tilgjengelige stasjoner er representert av de røde og gule prikkene på kartet.

Hold musepekeren over prikken for å se navnet på stasjonen.

Klikk så for å se værobservasjoner og -varsler.

For å forandre kartet kan du klikke på den grønne knappen med svart kryss for å zoome inn, på den grønne knappen med strek for å zoome ut, eller på de grønne pilene for å se tilstøtende kart.


METAR-TAF: